createdAt,value
2017-01-31T00:00:56.664Z,936.61
2017-01-31T00:02:10.485Z,936.59
2017-01-31T00:03:23.734Z,936.63
2017-01-31T00:04:37.850Z,936.6
2017-01-31T00:05:51.668Z,936.56
2017-01-31T00:07:05.489Z,936.59
2017-01-31T00:08:19.310Z,936.61
2017-01-31T00:09:33.130Z,936.61
2017-01-31T00:10:46.948Z,936.67
2017-01-31T00:12:00.765Z,936.67
2017-01-31T00:13:13.981Z,936.62
2017-01-31T00:16:08.744Z,936.67
2017-01-31T00:17:21.958Z,936.68
2017-01-31T00:18:35.780Z,936.73
2017-01-31T00:19:49.594Z,936.67
2017-01-31T00:21:02.808Z,936.71
2017-01-31T00:22:16.018Z,936.75
2017-01-31T00:23:43.731Z,936.72
2017-01-31T00:25:11.852Z,936.75
2017-01-31T00:26:25.671Z,936.74
2017-01-31T00:27:39.495Z,936.78
2017-01-31T00:28:53.325Z,936.8
2017-01-31T00:30:07.164Z,936.74
2017-01-31T00:31:20.650Z,936.79
2017-01-31T00:32:34.482Z,936.79
2017-01-31T00:33:48.330Z,936.83
2017-01-31T00:35:02.178Z,936.84
2017-01-31T00:36:14.197Z,936.86
2017-01-31T00:37:28.043Z,936.86
2017-01-31T00:38:41.872Z,936.86
2017-01-31T00:39:55.705Z,936.86
2017-01-31T00:41:08.938Z,936.86
2017-01-31T00:42:22.769Z,936.84
2017-01-31T00:43:36.614Z,936.87
2017-01-31T00:44:50.441Z,936.89
2017-01-31T00:46:04.285Z,936.89
2017-01-31T00:47:17.519Z,936.91
2017-01-31T00:48:31.362Z,936.9
2017-01-31T00:49:45.195Z,936.88
2017-01-31T00:50:59.019Z,936.92
2017-01-31T00:52:13.059Z,936.92
2017-01-31T00:53:26.888Z,936.91
2017-01-31T00:54:40.725Z,936.89
2017-01-31T00:55:54.556Z,936.89
2017-01-31T00:57:07.187Z,936.88
2017-01-31T00:58:21.242Z,936.86
2017-01-31T00:59:35.086Z,936.89
2017-01-31T01:00:48.933Z,936.9
2017-01-31T01:02:02.781Z,936.93
2017-01-31T01:03:30.693Z,936.92
2017-01-31T01:04:58.397Z,936.9
2017-01-31T01:06:12.251Z,936.88
2017-01-31T01:07:25.488Z,936.89
2017-01-31T01:08:39.508Z,936.88
2017-01-31T01:09:53.340Z,936.86
2017-01-31T01:11:06.554Z,936.88
2017-01-31T01:12:19.166Z,936.87
2017-01-31T01:13:33.186Z,936.83
2017-01-31T01:14:47.011Z,936.83
2017-01-31T01:16:00.834Z,936.86
2017-01-31T01:17:14.054Z,936.85
2017-01-31T01:18:27.874Z,936.82
2017-01-31T01:19:41.697Z,936.82
2017-01-31T01:20:55.516Z,936.8
2017-01-31T01:22:08.732Z,936.81
2017-01-31T01:23:21.947Z,936.81
2017-01-31T01:24:49.636Z,936.81
2017-01-31T01:26:03.460Z,936.83
2017-01-31T01:27:16.672Z,936.82
2017-01-31T01:28:30.489Z,936.82
2017-01-31T01:29:44.306Z,936.81
2017-01-31T01:30:58.123Z,936.82
2017-01-31T01:32:11.947Z,936.79
2017-01-31T01:33:25.768Z,936.77
2017-01-31T01:34:39.790Z,936.8
2017-01-31T01:35:53.636Z,936.8
2017-01-31T01:37:06.851Z,936.77
2017-01-31T01:38:20.675Z,936.74
2017-01-31T01:39:34.492Z,936.74
2017-01-31T01:41:01.578Z,936.69
2017-01-31T01:42:15.400Z,936.74
2017-01-31T01:43:29.219Z,936.73
2017-01-31T01:44:42.436Z,936.75
2017-01-31T01:45:56.257Z,936.73
2017-01-31T01:47:10.077Z,936.71
2017-01-31T01:48:23.895Z,936.72
2017-01-31T01:49:37.713Z,936.69
2017-01-31T01:50:51.531Z,936.7
2017-01-31T01:52:04.747Z,936.66
2017-01-31T01:53:18.575Z,936.67
2017-01-31T01:54:32.392Z,936.68
2017-01-31T01:55:46.250Z,936.69
2017-01-31T01:57:00.423Z,936.7
2017-01-31T01:58:14.256Z,936.72
2017-01-31T01:59:28.080Z,936.73
2017-01-31T02:00:41.899Z,936.75
2017-01-31T02:01:55.714Z,936.76
2017-01-31T02:03:08.321Z,936.76
2017-01-31T02:04:21.539Z,936.82
2017-01-31T02:05:35.357Z,936.82
2017-01-31T02:06:49.193Z,936.81
2017-01-31T02:08:02.422Z,936.77
2017-01-31T02:09:16.269Z,936.78
2017-01-31T02:10:30.123Z,936.76
2017-01-31T02:11:43.971Z,936.77
2017-01-31T02:12:58.067Z,936.79
2017-01-31T02:14:11.901Z,936.81
2017-01-31T02:15:25.732Z,936.81
2017-01-31T02:16:39.553Z,936.79
2017-01-31T02:17:53.382Z,936.79
2017-01-31T02:19:07.473Z,936.8
2017-01-31T02:20:20.702Z,936.75
2017-01-31T02:21:34.529Z,936.76
2017-01-31T02:23:02.223Z,936.75
2017-01-31T02:24:16.052Z,936.78
2017-01-31T02:25:29.868Z,936.77
2017-01-31T02:26:43.685Z,936.78
2017-01-31T02:27:57.504Z,936.78
2017-01-31T02:29:11.069Z,936.77
2017-01-31T02:30:24.289Z,936.77
2017-01-31T02:31:38.111Z,936.78
2017-01-31T02:32:51.931Z,936.77
2017-01-31T02:34:05.364Z,936.79
2017-01-31T02:35:19.188Z,936.78
2017-01-31T02:36:33.010Z,936.79
2017-01-31T02:37:46.830Z,936.85
2017-01-31T02:39:14.518Z,936.83
2017-01-31T02:40:28.340Z,936.84
2017-01-31T02:41:42.163Z,936.85
2017-01-31T02:42:55.981Z,936.8
2017-01-31T02:44:10.021Z,936.8
2017-01-31T02:45:23.842Z,936.84
2017-01-31T02:46:37.061Z,936.83
2017-01-31T02:47:50.281Z,936.86
2017-01-31T02:49:04.452Z,936.88
2017-01-31T02:50:18.286Z,936.88
2017-01-31T02:51:32.103Z,936.86
2017-01-31T02:52:45.933Z,936.85
2017-01-31T02:53:59.769Z,936.83
2017-01-31T02:55:13.602Z,936.83
2017-01-31T02:56:27.421Z,936.84
2017-01-31T02:57:41.250Z,936.86
2017-01-31T02:58:54.477Z,936.82
2017-01-31T03:00:08.507Z,936.79
2017-01-31T03:01:21.739Z,936.82
2017-01-31T03:02:35.574Z,936.81
2017-01-31T03:03:49.405Z,936.78
2017-01-31T03:05:03.589Z,936.8
2017-01-31T03:06:17.433Z,936.77
2017-01-31T03:07:31.269Z,936.77
2017-01-31T03:08:45.104Z,936.78
2017-01-31T03:09:58.942Z,936.73
2017-01-31T03:11:12.177Z,936.7
2017-01-31T03:12:25.417Z,936.71
2017-01-31T03:13:39.286Z,936.71
2017-01-31T03:14:53.135Z,936.67
2017-01-31T03:16:07.335Z,936.7
2017-01-31T03:17:20.576Z,936.6
2017-01-31T03:18:34.429Z,936.63
2017-01-31T03:19:48.291Z,936.54
2017-01-31T03:21:02.140Z,936.49
2017-01-31T03:22:29.835Z,936.42
2017-01-31T03:23:57.523Z,936.43
2017-01-31T03:25:10.742Z,936.39
2017-01-31T03:26:24.762Z,936.41
2017-01-31T03:27:38.578Z,936.34
2017-01-31T03:28:52.397Z,936.34
2017-01-31T03:30:06.219Z,936.37
2017-01-31T03:31:20.074Z,936.36
2017-01-31T03:32:34.243Z,936.36
2017-01-31T03:33:48.060Z,936.39
2017-01-31T03:35:01.282Z,936.41
2017-01-31T03:36:15.101Z,936.4
2017-01-31T03:37:57.006Z,936.46
2017-01-31T03:39:10.824Z,936.42
2017-01-31T03:40:24.645Z,936.41
2017-01-31T03:41:38.818Z,936.36
2017-01-31T03:42:52.640Z,936.39
2017-01-31T03:44:06.460Z,936.34
2017-01-31T03:45:20.279Z,936.35
2017-01-31T03:46:34.128Z,936.28
2017-01-31T03:47:47.949Z,936.28
2017-01-31T03:49:01.777Z,936.23
2017-01-31T03:50:29.468Z,936.18
2017-01-31T03:51:42.931Z,936.16
2017-01-31T03:52:56.748Z,936.12
2017-01-31T03:54:10.562Z,936.15
2017-01-31T03:55:24.385Z,936.08
2017-01-31T03:56:38.208Z,936.08
2017-01-31T03:57:52.227Z,936.08
2017-01-31T03:59:05.441Z,936.06
2017-01-31T04:00:19.259Z,936.06
2017-01-31T04:01:33.077Z,936.06
2017-01-31T04:02:46.929Z,936.05
2017-01-31T04:04:00.746Z,936.07
2017-01-31T04:05:14.576Z,936.09
2017-01-31T04:06:28.407Z,936.08
2017-01-31T04:07:42.225Z,936.11
2017-01-31T04:08:56.063Z,936.12
2017-01-31T04:10:23.756Z,936.16
2017-01-31T04:11:37.579Z,936.15
2017-01-31T04:14:19.099Z,936.09
2017-01-31T04:15:32.930Z,936.12
2017-01-31T04:16:46.752Z,936.04
2017-01-31T04:18:00.921Z,936.07
2017-01-31T04:19:14.149Z,936.07
2017-01-31T04:20:27.975Z,936.04
2017-01-31T04:21:41.797Z,936.03
2017-01-31T04:22:55.647Z,936.02
2017-01-31T04:24:08.273Z,936.06
2017-01-31T04:25:21.501Z,936.01
2017-01-31T04:26:35.321Z,935.96
2017-01-31T04:27:49.157Z,935.94
2017-01-31T04:29:02.380Z,935.92
2017-01-31T04:30:15.614Z,935.93
2017-01-31T04:31:29.452Z,935.92
2017-01-31T04:32:43.300Z,935.91
2017-01-31T04:33:57.140Z,935.89
2017-01-31T04:35:11.343Z,935.89
2017-01-31T04:36:25.194Z,935.87
2017-01-31T04:37:39.037Z,935.86
2017-01-31T04:38:52.915Z,935.82
2017-01-31T04:40:07.128Z,935.81
2017-01-31T04:41:34.841Z,935.78
2017-01-31T04:42:48.693Z,935.82
2017-01-31T04:44:01.935Z,935.83
2017-01-31T04:45:15.770Z,935.8
2017-01-31T04:46:29.609Z,935.8
2017-01-31T04:47:43.463Z,935.83
2017-01-31T04:48:57.297Z,935.81
2017-01-31T04:50:11.492Z,935.81
2017-01-31T04:51:25.329Z,935.78
2017-01-31T04:52:39.172Z,935.8
2017-01-31T04:53:53.014Z,935.78
2017-01-31T04:55:06.866Z,935.73
2017-01-31T04:56:20.719Z,935.73
2017-01-31T04:57:34.572Z,935.68
2017-01-31T04:59:02.289Z,935.65
2017-01-31T05:00:16.130Z,935.64
2017-01-31T05:01:29.365Z,935.62
2017-01-31T05:02:43.198Z,935.62
2017-01-31T05:03:57.036Z,935.63
2017-01-31T05:05:10.885Z,935.6
2017-01-31T05:06:24.734Z,935.59
2017-01-31T05:07:38.575Z,935.62
2017-01-31T05:08:52.433Z,935.66
2017-01-31T05:10:06.283Z,935.63
2017-01-31T05:11:20.127Z,935.62
2017-01-31T05:12:33.979Z,935.64
2017-01-31T05:13:47.820Z,935.63
2017-01-31T05:15:01.656Z,935.61
2017-01-31T05:16:14.881Z,935.6
2017-01-31T05:17:28.728Z,935.56
2017-01-31T05:18:41.968Z,935.58
2017-01-31T05:19:55.822Z,935.59
2017-01-31T05:21:09.072Z,935.6
2017-01-31T05:22:22.518Z,935.6
2017-01-31T05:23:36.368Z,935.58
2017-01-31T05:24:50.225Z,935.56
2017-01-31T05:26:04.083Z,935.56
2017-01-31T05:27:17.552Z,935.58
2017-01-31T05:28:31.397Z,935.58
2017-01-31T05:29:58.499Z,935.62
2017-01-31T05:31:12.348Z,935.59
2017-01-31T05:32:26.545Z,935.56
2017-01-31T05:33:40.396Z,935.55
2017-01-31T05:34:54.246Z,935.56
2017-01-31T05:36:08.093Z,935.6
2017-01-31T05:37:21.335Z,935.63
2017-01-31T05:38:35.389Z,935.64
2017-01-31T05:39:49.239Z,935.65
2017-01-31T05:41:03.089Z,935.63
2017-01-31T05:42:16.942Z,935.69
2017-01-31T05:43:30.191Z,935.63
2017-01-31T05:44:43.435Z,935.64
2017-01-31T05:45:57.287Z,935.66
2017-01-31T05:47:11.135Z,935.64
2017-01-31T05:48:25.335Z,935.65
2017-01-31T05:49:39.186Z,935.65
2017-01-31T05:50:53.060Z,935.63
2017-01-31T05:52:06.910Z,935.62
2017-01-31T05:53:20.761Z,935.64
2017-01-31T05:54:34.614Z,935.64
2017-01-31T05:55:47.260Z,935.61
2017-01-31T05:57:01.108Z,935.61
2017-01-31T05:58:14.960Z,935.62
2017-01-31T05:59:28.827Z,935.61
2017-01-31T06:00:42.676Z,935.63
2017-01-31T06:02:10.392Z,935.59
2017-01-31T06:03:24.244Z,935.56
2017-01-31T06:04:38.293Z,935.53
2017-01-31T06:05:52.142Z,935.52
2017-01-31T06:07:05.996Z,935.51
2017-01-31T06:08:19.238Z,935.51
2017-01-31T06:09:33.288Z,935.5
2017-01-31T06:11:00.998Z,935.45
2017-01-31T06:12:14.236Z,935.46
2017-01-31T06:13:28.086Z,935.43
2017-01-31T06:14:41.937Z,935.4
2017-01-31T06:15:55.785Z,935.38
2017-01-31T06:17:09.640Z,935.41
2017-01-31T06:18:23.488Z,935.37
2017-01-31T06:19:37.540Z,935.33
2017-01-31T06:20:50.783Z,935.37
2017-01-31T06:22:04.025Z,935.38
2017-01-31T06:23:17.877Z,935.37
2017-01-31T06:24:45.938Z,935.41
2017-01-31T06:25:59.787Z,935.42
2017-01-31T06:27:13.631Z,935.4
2017-01-31T06:28:27.483Z,935.4
2017-01-31T06:29:54.939Z,935.35
2017-01-31T06:31:08.789Z,935.34
2017-01-31T06:32:22.638Z,935.37
2017-01-31T06:33:36.485Z,935.38
2017-01-31T06:35:03.942Z,935.37
2017-01-31T06:36:17.789Z,935.34
2017-01-31T06:37:31.640Z,935.38
2017-01-31T06:40:12.593Z,935.39
2017-01-31T06:41:26.444Z,935.38
2017-01-31T06:42:40.301Z,935.36
2017-01-31T06:44:07.410Z,935.36
2017-01-31T06:45:20.659Z,935.33
2017-01-31T06:46:34.515Z,935.29
2017-01-31T06:47:47.756Z,935.28
2017-01-31T06:49:01.611Z,935.27
2017-01-31T06:50:14.862Z,935.33
2017-01-31T06:51:28.300Z,935.31
2017-01-31T06:52:42.148Z,935.36
2017-01-31T06:53:55.999Z,935.36
2017-01-31T06:55:09.860Z,935.35
2017-01-31T06:56:24.062Z,935.34
2017-01-31T06:57:37.912Z,935.34
2017-01-31T06:58:51.152Z,935.31
2017-01-31T07:00:05.042Z,935.32
2017-01-31T07:01:17.672Z,935.32
2017-01-31T07:02:30.915Z,935.31
2017-01-31T07:03:44.786Z,935.35
2017-01-31T07:04:58.637Z,935.34
2017-01-31T07:06:12.487Z,935.34
2017-01-31T07:07:26.686Z,935.34
2017-01-31T07:08:40.534Z,935.32
2017-01-31T07:09:54.390Z,935.34
2017-01-31T07:11:07.632Z,935.36
2017-01-31T07:12:21.484Z,935.35
2017-01-31T07:13:35.359Z,935.35
2017-01-31T07:14:49.210Z,935.38
2017-01-31T07:16:16.924Z,935.36
2017-01-31T07:17:29.562Z,935.38
2017-01-31T07:18:43.409Z,935.42
2017-01-31T07:19:57.258Z,935.43
2017-01-31T07:21:09.943Z,935.45
2017-01-31T07:22:37.656Z,935.51
2017-01-31T07:23:50.895Z,935.52
2017-01-31T07:25:04.748Z,935.53
2017-01-31T07:26:18.597Z,935.52
2017-01-31T07:28:59.854Z,935.59
2017-01-31T07:30:13.709Z,935.56
2017-01-31T07:31:27.558Z,935.52
2017-01-31T07:32:41.407Z,935.49
2017-01-31T07:33:55.254Z,935.47
2017-01-31T07:35:09.104Z,935.45
2017-01-31T07:36:22.950Z,935.43
2017-01-31T07:37:36.798Z,935.4
2017-01-31T07:38:51.005Z,935.39
2017-01-31T07:40:04.854Z,935.39
2017-01-31T07:41:18.709Z,935.39
2017-01-31T07:42:32.560Z,935.41
2017-01-31T07:43:46.410Z,935.41
2017-01-31T07:45:00.611Z,935.39
2017-01-31T07:46:13.249Z,935.41
2017-01-31T07:47:27.099Z,935.39
2017-01-31T07:48:40.949Z,935.36
2017-01-31T07:49:55.001Z,935.35
2017-01-31T07:51:08.249Z,935.3
2017-01-31T07:52:22.099Z,935.34
2017-01-31T07:53:35.953Z,935.3
2017-01-31T07:54:50.002Z,935.28
2017-01-31T07:56:03.853Z,935.26
2017-01-31T07:57:17.702Z,935.26
2017-01-31T07:58:31.554Z,935.19
2017-01-31T07:59:45.410Z,935.19
2017-01-31T08:00:59.486Z,935.11
2017-01-31T08:02:13.339Z,935.08
2017-01-31T08:03:27.185Z,935.09
2017-01-31T08:06:08.765Z,935.07
2017-01-31T08:07:22.615Z,935.1
2017-01-31T08:08:36.471Z,935.1
2017-01-31T08:09:50.325Z,935.11
2017-01-31T08:11:04.176Z,935.12
2017-01-31T08:12:18.031Z,935.19
2017-01-31T08:13:31.883Z,935.27
2017-01-31T08:14:45.732Z,935.28
2017-01-31T08:15:59.931Z,935.3
2017-01-31T08:17:13.780Z,935.4
2017-01-31T08:18:27.631Z,935.4
2017-01-31T08:19:41.498Z,935.46
2017-01-31T08:20:55.355Z,935.44
2017-01-31T08:22:09.410Z,935.45
2017-01-31T08:23:23.262Z,935.45
2017-01-31T08:24:36.503Z,935.45
2017-01-31T08:26:04.466Z,935.47
2017-01-31T08:27:18.335Z,935.54
2017-01-31T08:28:32.199Z,935.59
2017-01-31T08:31:27.010Z,935.71
2017-01-31T08:32:40.870Z,935.76
2017-01-31T08:33:54.725Z,935.79
2017-01-31T08:35:07.973Z,935.8
2017-01-31T08:36:21.822Z,935.82
2017-01-31T08:37:36.048Z,935.84
2017-01-31T08:38:49.902Z,935.86
2017-01-31T08:40:03.753Z,935.83
2017-01-31T08:41:16.997Z,935.87
2017-01-31T08:42:31.195Z,935.81
2017-01-31T08:43:45.053Z,935.84
2017-01-31T08:44:58.901Z,935.8
2017-01-31T08:46:12.754Z,935.81
2017-01-31T08:47:26.615Z,935.82
2017-01-31T08:48:40.461Z,935.8
2017-01-31T08:49:53.704Z,935.72
2017-01-31T08:51:07.550Z,935.73
2017-01-31T08:52:20.795Z,935.76
2017-01-31T08:53:34.650Z,935.75
2017-01-31T08:54:48.499Z,935.73
2017-01-31T08:56:02.385Z,935.72
2017-01-31T08:57:15.623Z,935.71
2017-01-31T08:58:29.674Z,935.69
2017-01-31T08:59:43.523Z,935.72
2017-01-31T09:00:57.369Z,935.72
2017-01-31T09:02:11.226Z,935.71
2017-01-31T09:03:24.471Z,935.74
2017-01-31T09:04:38.344Z,935.75
2017-01-31T09:05:52.198Z,935.73
2017-01-31T09:07:06.048Z,935.72
2017-01-31T09:08:19.903Z,935.73
2017-01-31T09:09:33.756Z,935.74
2017-01-31T09:10:47.626Z,935.79
2017-01-31T09:12:01.475Z,935.83
2017-01-31T09:13:14.719Z,935.79
2017-01-31T09:14:28.803Z,935.77
2017-01-31T09:15:42.655Z,935.76
2017-01-31T09:16:56.507Z,935.76
2017-01-31T09:18:10.358Z,935.79
2017-01-31T09:19:24.206Z,935.81
2017-01-31T09:20:38.058Z,935.84
2017-01-31T09:21:51.908Z,935.87
2017-01-31T09:23:05.151Z,935.88
2017-01-31T09:24:19.003Z,935.94
2017-01-31T09:25:32.855Z,935.94
2017-01-31T09:26:46.720Z,935.96
2017-01-31T09:28:00.583Z,936
2017-01-31T09:29:14.440Z,935.96
2017-01-31T09:30:28.292Z,936.01
2017-01-31T09:31:42.148Z,936.01
2017-01-31T09:32:55.996Z,936
2017-01-31T09:34:09.240Z,936.01
2017-01-31T09:35:23.097Z,936.03
2017-01-31T09:36:37.151Z,936.02
2017-01-31T09:37:50.397Z,935.99
2017-01-31T09:39:04.254Z,936.03
2017-01-31T09:40:18.113Z,936
2017-01-31T09:41:31.968Z,936.04
2017-01-31T09:42:45.245Z,936.02
2017-01-31T09:44:12.963Z,936
2017-01-31T09:45:26.886Z,936.02
2017-01-31T09:46:40.786Z,936.04
2017-01-31T09:47:54.646Z,936.07
2017-01-31T09:49:08.557Z,936.06
2017-01-31T09:50:21.807Z,936.1
2017-01-31T09:51:35.721Z,936.18
2017-01-31T09:52:49.612Z,936.2
2017-01-31T09:54:02.292Z,936.23
2017-01-31T09:55:15.585Z,936.26
2017-01-31T09:56:29.701Z,936.29
2017-01-31T09:57:42.958Z,936.31
2017-01-31T09:58:56.814Z,936.34
2017-01-31T10:00:10.109Z,936.38
2017-01-31T10:01:24.173Z,936.35
2017-01-31T10:02:37.522Z,936.36
2017-01-31T10:03:51.496Z,936.36
2017-01-31T10:05:05.619Z,936.35
2017-01-31T10:06:19.797Z,936.43
2017-01-31T10:07:47.337Z,936.42
2017-01-31T10:09:01.426Z,936.41
2017-01-31T10:10:14.885Z,936.44
2017-01-31T10:11:29.014Z,936.51
2017-01-31T10:12:42.066Z,936.5
2017-01-31T10:14:09.966Z,936.47
2017-01-31T10:15:37.884Z,936.49
2017-01-31T10:16:51.745Z,936.5
2017-01-31T10:18:19.101Z,936.53
2017-01-31T10:19:32.365Z,936.53
2017-01-31T10:20:46.222Z,936.55
2017-01-31T10:22:00.101Z,936.56
2017-01-31T10:23:13.354Z,936.56
2017-01-31T10:25:54.443Z,936.55
2017-01-31T10:27:07.740Z,936.56
2017-01-31T10:28:21.800Z,936.53
2017-01-31T10:29:49.515Z,936.57
2017-01-31T10:31:03.378Z,936.55
2017-01-31T10:32:17.229Z,936.54
2017-01-31T10:33:30.467Z,936.55
2017-01-31T10:34:44.310Z,936.53
2017-01-31T10:35:58.155Z,936.56
2017-01-31T10:37:12.018Z,936.59
2017-01-31T10:38:25.864Z,936.56
2017-01-31T10:41:07.633Z,936.56
2017-01-31T10:42:20.864Z,936.56
2017-01-31T10:43:34.710Z,936.54
2017-01-31T10:44:48.556Z,936.55
2017-01-31T10:46:02.400Z,936.55
2017-01-31T10:47:15.738Z,936.56
2017-01-31T10:48:29.019Z,936.55
2017-01-31T10:49:42.493Z,936.57
2017-01-31T10:50:55.825Z,936.55
2017-01-31T10:52:09.804Z,936.55
2017-01-31T10:53:23.737Z,936.53
2017-01-31T10:54:37.617Z,936.58
2017-01-31T10:55:51.517Z,936.58
2017-01-31T10:57:19.253Z,936.58
2017-01-31T10:58:33.157Z,936.52
2017-01-31T10:59:47.067Z,936.59
2017-01-31T11:01:01.027Z,936.62
2017-01-31T11:02:15.232Z,936.57
2017-01-31T11:03:43.162Z,936.6
2017-01-31T11:04:57.282Z,936.55
2017-01-31T11:06:11.365Z,936.58
2017-01-31T11:07:25.536Z,936.52
2017-01-31T11:08:39.137Z,936.5
2017-01-31T11:09:53.292Z,936.51
2017-01-31T11:11:21.339Z,936.43
2017-01-31T11:12:49.134Z,936.44
2017-01-31T11:14:02.988Z,936.46
2017-01-31T11:15:17.030Z,936.51
2017-01-31T11:16:30.863Z,936.49
2017-01-31T11:17:44.116Z,936.54
2017-01-31T11:18:58.303Z,936.51
2017-01-31T11:20:26.057Z,936.43
2017-01-31T11:21:40.958Z,936.51
2017-01-31T11:23:08.933Z,936.5
2017-01-31T11:24:22.761Z,936.54
2017-01-31T11:25:36.603Z,936.54
2017-01-31T11:27:04.341Z,936.52
2017-01-31T11:28:17.576Z,936.51
2017-01-31T11:29:31.427Z,936.53
2017-01-31T11:30:45.692Z,936.51
2017-01-31T11:31:59.608Z,936.52
2017-01-31T11:33:27.459Z,936.52
2017-01-31T11:34:40.918Z,936.51
2017-01-31T11:35:55.073Z,936.51
2017-01-31T11:38:36.315Z,936.51
2017-01-31T11:39:49.207Z,936.47
2017-01-31T11:41:02.817Z,936.46
2017-01-31T11:42:16.643Z,936.53
2017-01-31T11:43:30.466Z,936.48
2017-01-31T11:44:44.286Z,936.45
2017-01-31T11:45:58.102Z,936.48
2017-01-31T11:47:13.078Z,936.5
2017-01-31T11:48:26.898Z,936.45
2017-01-31T11:49:38.903Z,936.42
2017-01-31T11:50:52.723Z,936.41
2017-01-31T11:52:06.550Z,936.42
2017-01-31T11:53:20.374Z,936.43
2017-01-31T11:54:33.631Z,936.41
2017-01-31T11:55:47.460Z,936.42
2017-01-31T11:57:01.312Z,936.41
2017-01-31T11:58:14.534Z,936.43
2017-01-31T11:59:28.357Z,936.39
2017-01-31T12:00:41.609Z,936.49
2017-01-31T12:01:55.426Z,936.43
2017-01-31T12:03:08.652Z,936.45
2017-01-31T12:04:22.477Z,936.48
2017-01-31T12:05:36.326Z,936.46
2017-01-31T12:06:50.146Z,936.46
2017-01-31T12:08:03.966Z,936.48
2017-01-31T12:09:17.786Z,936.48
2017-01-31T12:10:30.404Z,936.48
2017-01-31T12:11:43.627Z,936.45
2017-01-31T12:12:57.453Z,936.45
2017-01-31T12:14:10.673Z,936.45
2017-01-31T12:15:24.499Z,936.41
2017-01-31T12:16:52.196Z,936.43
2017-01-31T12:18:06.026Z,936.48
2017-01-31T12:19:19.250Z,936.46
2017-01-31T12:20:33.075Z,936.48
2017-01-31T12:21:46.297Z,936.47
2017-01-31T12:23:00.190Z,936.47
2017-01-31T12:24:14.062Z,936.46
2017-01-31T12:25:41.769Z,936.46
2017-01-31T12:26:55.607Z,936.49
2017-01-31T12:28:08.840Z,936.46
2017-01-31T12:29:22.707Z,936.45
2017-01-31T12:30:35.938Z,936.45
2017-01-31T12:31:49.769Z,936.46
2017-01-31T12:33:03.033Z,936.47
2017-01-31T12:34:16.951Z,936.46
2017-01-31T12:35:30.933Z,936.49
2017-01-31T12:36:44.838Z,936.45
2017-01-31T12:38:12.655Z,936.46
2017-01-31T12:39:26.810Z,936.48
2017-01-31T12:40:40.774Z,936.46
2017-01-31T12:41:54.795Z,936.45
2017-01-31T12:43:08.849Z,936.47
2017-01-31T12:44:36.619Z,936.46
2017-01-31T12:45:50.077Z,936.44
2017-01-31T12:47:04.082Z,936.46
2017-01-31T12:48:18.123Z,936.41
2017-01-31T12:49:31.944Z,936.4
2017-01-31T12:50:45.163Z,936.43
2017-01-31T12:51:58.378Z,936.42
2017-01-31T12:53:26.077Z,936.42
2017-01-31T12:54:40.201Z,936.44
2017-01-31T12:55:54.020Z,936.38
2017-01-31T12:57:07.842Z,936.4
2017-01-31T12:58:21.665Z,936.37
2017-01-31T12:59:35.494Z,936.4
2017-01-31T13:00:49.312Z,936.37
2017-01-31T13:02:03.139Z,936.35
2017-01-31T13:03:16.972Z,936.33
2017-01-31T13:04:30.794Z,936.33
2017-01-31T13:05:44.622Z,936.37
2017-01-31T13:06:58.444Z,936.39
2017-01-31T13:08:12.292Z,936.39
2017-01-31T13:09:39.986Z,936.36
2017-01-31T13:11:07.681Z,936.37
2017-01-31T13:12:21.567Z,936.37
2017-01-31T13:13:35.442Z,936.32
2017-01-31T13:14:48.726Z,936.3
2017-01-31T13:16:02.058Z,936.29
2017-01-31T13:17:15.402Z,936.27
2017-01-31T13:18:29.455Z,936.26
2017-01-31T13:19:43.355Z,936.24
2017-01-31T13:20:57.621Z,936.23
2017-01-31T13:22:11.661Z,936.21
2017-01-31T13:23:24.949Z,936.19
2017-01-31T13:24:38.799Z,936.19
2017-01-31T13:25:52.628Z,936.18
2017-01-31T13:27:06.481Z,936.18
2017-01-31T13:28:20.314Z,936.09
2017-01-31T13:29:33.536Z,936.11
2017-01-31T13:30:46.756Z,936.1
2017-01-31T13:32:00.831Z,936.11
2017-01-31T13:33:14.752Z,936.12
2017-01-31T13:34:27.992Z,936.1
2017-01-31T13:35:41.829Z,936.07
2017-01-31T13:36:55.683Z,936.07
2017-01-31T13:38:08.953Z,935.98
2017-01-31T13:39:22.787Z,935.92
2017-01-31T13:40:50.487Z,936.02
2017-01-31T13:42:04.317Z,935.99
2017-01-31T13:43:18.145Z,935.98
2017-01-31T13:44:45.232Z,935.98
2017-01-31T13:45:59.056Z,935.94
2017-01-31T13:47:13.136Z,935.93
2017-01-31T13:48:26.961Z,935.94
2017-01-31T13:49:40.788Z,935.9
2017-01-31T13:50:54.620Z,935.91
2017-01-31T13:52:07.842Z,935.9
2017-01-31T13:53:21.669Z,935.93
2017-01-31T13:54:35.495Z,935.95
2017-01-31T13:55:49.347Z,935.88
2017-01-31T13:57:03.180Z,935.86
2017-01-31T13:58:17.265Z,935.81
2017-01-31T13:59:31.099Z,935.82
2017-01-31T14:00:44.925Z,935.86
2017-01-31T14:01:58.754Z,935.76
2017-01-31T14:03:26.455Z,935.74
2017-01-31T14:04:40.287Z,935.77
2017-01-31T14:05:53.507Z,935.76
2017-01-31T14:07:07.340Z,935.75
2017-01-31T14:08:21.172Z,935.76
2017-01-31T14:09:35.000Z,935.76
2017-01-31T14:10:48.825Z,935.73
2017-01-31T14:12:02.656Z,935.72
2017-01-31T14:13:15.876Z,935.7
2017-01-31T14:14:28.487Z,935.68
2017-01-31T14:15:42.349Z,935.7
2017-01-31T14:16:56.180Z,935.72
2017-01-31T14:18:10.005Z,935.64
2017-01-31T14:19:23.835Z,935.66
2017-01-31T14:20:37.662Z,935.6
2017-01-31T14:21:51.492Z,935.61
2017-01-31T14:23:05.315Z,935.53
2017-01-31T14:24:18.540Z,935.56
2017-01-31T14:25:31.760Z,935.6
2017-01-31T14:26:59.451Z,935.59
2017-01-31T14:28:13.284Z,935.53
2017-01-31T14:29:26.502Z,935.58
2017-01-31T14:30:40.528Z,935.6
2017-01-31T14:31:54.357Z,935.61
2017-01-31T14:33:08.181Z,935.53
2017-01-31T14:34:22.007Z,935.53
2017-01-31T14:35:35.839Z,935.5
2017-01-31T14:36:49.672Z,935.52
2017-01-31T14:38:03.499Z,935.49
2017-01-31T14:39:16.714Z,935.46
2017-01-31T14:40:30.544Z,935.45
2017-01-31T14:41:44.371Z,935.44
2017-01-31T14:42:58.244Z,935.39
2017-01-31T14:44:12.075Z,935.4
2017-01-31T14:45:25.903Z,935.43
2017-01-31T14:46:40.075Z,935.43
2017-01-31T14:47:53.899Z,935.44
2017-01-31T14:49:07.722Z,935.48
2017-01-31T14:50:21.751Z,935.44
2017-01-31T14:51:35.573Z,935.46
2017-01-31T14:54:17.102Z,935.42
2017-01-31T14:55:30.938Z,935.39
2017-01-31T14:56:45.023Z,935.4
2017-01-31T14:57:58.851Z,935.4
2017-01-31T14:59:12.683Z,935.37
2017-01-31T15:00:26.512Z,935.34
2017-01-31T15:01:40.692Z,935.36
2017-01-31T15:02:54.521Z,935.31
2017-01-31T15:05:36.252Z,935.29
2017-01-31T15:06:50.457Z,935.27
2017-01-31T15:08:04.322Z,935.31
2017-01-31T15:09:18.186Z,935.31
2017-01-31T15:10:32.044Z,935.31
2017-01-31T15:13:13.349Z,935.27
2017-01-31T15:14:27.177Z,935.23
2017-01-31T15:15:41.004Z,935.28
2017-01-31T15:16:55.081Z,935.23
2017-01-31T15:18:08.304Z,935.21
2017-01-31T15:19:22.135Z,935.23
2017-01-31T15:20:35.957Z,935.21
2017-01-31T15:21:49.786Z,935.2
2017-01-31T15:23:03.610Z,935.23
2017-01-31T15:24:16.867Z,935.23
2017-01-31T15:25:30.696Z,935.2
2017-01-31T15:26:43.915Z,935.15
2017-01-31T15:27:57.131Z,935.17
2017-01-31T15:29:10.960Z,935.1
2017-01-31T15:30:24.177Z,935.1
2017-01-31T15:31:38.001Z,935.08
2017-01-31T15:32:52.095Z,935.08
2017-01-31T15:34:19.788Z,935.05
2017-01-31T15:35:33.617Z,935
2017-01-31T15:36:47.451Z,935.05
2017-01-31T15:38:01.279Z,935.03
2017-01-31T15:39:28.368Z,934.97
2017-01-31T15:40:42.194Z,934.93
2017-01-31T15:41:56.021Z,934.91
2017-01-31T15:43:08.639Z,934.88
2017-01-31T15:44:22.460Z,934.85
2017-01-31T15:45:36.310Z,934.8
2017-01-31T15:46:50.165Z,934.78
2017-01-31T15:48:03.994Z,934.77
2017-01-31T15:49:31.707Z,934.74
2017-01-31T15:50:45.539Z,934.73
2017-01-31T15:51:58.753Z,934.72
2017-01-31T15:53:11.978Z,934.71
2017-01-31T15:54:25.810Z,934.69